Time;durP1;ratioP1;P1;durP2;ratioP2;P2;SDS_P1;SDS_P2;PMS_P1;PMS_P2;Temp;Humidity;BMP_temperature;BMP_pressure;BME280_temperature;BME280_humidity;BME280_pressure;Samples;Min_cycle;Max_cycle;Signal;HPM_P1;HPM_P2
2023/06/26 00:01:54;;;;;;;10.02;7.22;;;;;;;;;;5069970;28;20052;-79
2023/06/26 00:04:21;;;;;;;10.02;7.70;;;;;;;;;;5071682;28;20135;-79
2023/06/26 00:06:47;;;;;;;9.70;7.47;;;;;;;;;;5069682;28;20514;-78
2023/06/26 00:09:14;;;;;;;9.93;7.22;;;;;;;;;;5077232;28;20052;-78
2023/06/26 00:11:41;;;;;;;9.15;7.15;;;;;;;;;;5076593;28;20052;-79
2023/06/26 00:14:09;;;;;;;9.13;7.32;;;;;;;;;;5077079;28;20048;-79
2023/06/26 00:16:36;;;;;;;8.68;7.10;;;;;;;;;;5074436;28;20485;-79
2023/06/26 00:19:03;;;;;;;8.98;7.20;;;;;;;;;;5070684;28;20057;-79
2023/06/26 00:21:29;;;;;;;9.30;6.57;;;;;;;;;;5067147;28;20046;-79
2023/06/26 00:23:56;;;;;;;10.10;7.47;;;;;;;;;;5058638;28;20072;-78
2023/06/26 00:26:24;;;;;;;8.63;6.80;;;;;;;;;;5057129;28;20110;-78
2023/06/26 00:28:50;;;;;;;8.88;7.15;;;;;;;;;;5072754;28;20078;-79
2023/06/26 00:31:18;;;;;;;8.70;6.75;;;;;;;;;;5079411;28;20044;-78
2023/06/26 00:33:45;;;;;;;9.70;6.97;;;;;;;;;;5080618;28;20076;-78
2023/06/26 00:36:11;;;;;;;8.65;6.47;;;;;;;;;;5079887;28;20123;-78
2023/06/26 00:38:38;;;;;;;9.20;7.15;;;;;;;;;;5080577;28;20040;-78
2023/06/26 00:41:04;;;;;;;9.00;7.18;;;;;;;;;;5079768;28;20040;-78
2023/06/26 00:43:31;;;;;;;9.45;7.57;;;;;;;;;;5080433;28;20091;-78
2023/06/26 00:45:58;;;;;;;9.35;6.68;;;;;;;;;;5079116;28;20056;-77
2023/06/26 00:48:26;;;;;;;9.35;7.47;;;;;;;;;;5077782;28;20495;-78
2023/06/26 00:50:52;;;;;;;10.18;7.47;;;;;;;;;;5080890;28;20048;-78
2023/06/26 00:53:19;;;;;;;8.73;6.88;;;;;;;;;;5080483;28;20653;-79
2023/06/26 00:55:47;;;;;;;8.45;6.75;;;;;;;;;;5080678;28;20049;-78
2023/06/26 00:58:13;;;;;;;13.25;7.60;;;;;;;;;;5080929;28;20458;-78
2023/06/26 01:00:40;;;;;;;10.45;7.53;;;;;;;;;;5084425;28;20055;-78
2023/06/26 01:03:07;;;;;;;11.38;7.55;;;;;;;;;;5098327;28;20071;-77
2023/06/26 01:05:35;;;;;;;9.70;7.35;;;;;;;;;;5099283;28;20042;-77
2023/06/26 01:08:03;;;;;;;10.48;7.63;;;;;;;;;;5091847;28;20039;-77
2023/06/26 01:10:31;;;;;;;10.55;7.45;;;;;;;;;;5086912;28;20104;-78
2023/06/26 01:12:58;;;;;;;10.77;8.00;;;;;;;;;;5073519;28;20052;-78
2023/06/26 01:15:25;;;;;;;11.15;8.00;;;;;;;;;;5079254;28;20056;-78
2023/06/26 01:17:52;;;;;;;10.50;8.25;;;;;;;;;;5081101;28;20079;-78
2023/06/26 01:20:20;;;;;;;9.55;7.63;;;;;;;;;;5079072;28;20475;-78
2023/06/26 01:22:57;;;;;;;10.18;7.97;;;;;;;;;;5078388;28;20040;-78
2023/06/26 01:25:38;;;;;;;11.45;8.25;;;;;;;;;;5078734;28;20151;-78
2023/06/26 01:28:07;;;;;;;9.50;7.63;;;;;;;;;;5078970;28;20048;-77
2023/06/26 01:30:35;;;;;;;10.80;8.10;;;;;;;;;;5078190;28;20040;-78
2023/06/26 01:33:03;;;;;;;9.93;7.28;;;;;;;;;;5078115;28;20076;-79
2023/06/26 01:35:30;;;;;;;10.32;7.85;;;;;;;;;;5074735;28;20135;-79
2023/06/26 01:38:12;;;;;;;9.55;7.93;;;;;;;;;;5082463;28;20120;-77
2023/06/26 01:40:39;;;;;;;9.05;7.32;;;;;;;;;;5087945;28;20073;-76
2023/06/26 01:43:12;;;;;;;9.98;8.20;;;;;;;;;;5079434;28;20048;-80
2023/06/26 01:45:39;;;;;;;10.00;7.97;;;;;;;;;;5076277;28;20392;-80
2023/06/26 01:48:10;;;;;;;10.02;7.47;;;;;;;;;;5074729;28;20063;-76
2023/06/26 01:50:38;;;;;;;9.98;8.10;;;;;;;;;;5074135;28;20047;-78
2023/06/26 01:53:11;;;;;;;10.18;7.70;;;;;;;;;;5075603;28;20483;-79
2023/06/26 01:55:43;;;;;;;10.68;7.90;;;;;;;;;;5088121;28;20087;-78
2023/06/26 01:58:11;;;;;;;11.70;7.93;;;;;;;;;;5082118;28;20059;-78
2023/06/26 02:00:38;;;;;;;10.35;8.05;;;;;;;;;;5072991;28;20040;-79
2023/06/26 02:03:06;;;;;;;10.63;8.63;;;;;;;;;;5077688;28;20055;-79
2023/06/26 02:05:33;;;;;;;10.68;7.60;;;;;;;;;;5077946;28;20048;-78
2023/06/26 02:08:01;;;;;;;11.07;8.23;;;;;;;;;;5075140;28;20056;-80
2023/06/26 02:10:27;;;;;;;10.60;8.35;;;;;;;;;;5073042;28;20539;-77
2023/06/26 02:12:54;;;;;;;11.13;8.63;;;;;;;;;;5074300;28;20060;-78
2023/06/26 02:15:22;;;;;;;10.57;8.23;;;;;;;;;;5073313;28;20055;-80
2023/06/26 02:17:49;;;;;;;10.75;8.30;;;;;;;;;;5073645;28;20047;-78
2023/06/26 02:20:16;;;;;;;11.10;8.50;;;;;;;;;;5073450;28;20133;-77
2023/06/26 02:22:43;;;;;;;11.55;8.02;;;;;;;;;;5073747;28;20079;-78
2023/06/26 02:25:12;;;;;;;10.75;8.07;;;;;;;;;;5072994;28;20041;-78
2023/06/26 02:27:38;;;;;;;10.88;8.10;;;;;;;;;;5072778;28;20107;-80
2023/06/26 02:30:06;;;;;;;10.10;7.47;;;;;;;;;;5071707;28;20037;-79
2023/06/26 02:32:34;;;;;;;11.00;8.27;;;;;;;;;;5073367;28;20561;-79
2023/06/26 02:35:01;;;;;;;9.98;7.50;;;;;;;;;;5073366;28;20051;-79
2023/06/26 02:37:27;;;;;;;11.02;8.13;;;;;;;;;;5073930;28;20047;-79
2023/06/26 02:39:54;;;;;;;11.00;8.32;;;;;;;;;;5072796;28;20049;-80
2023/06/26 02:42:20;;;;;;;10.93;8.02;;;;;;;;;;5072669;28;20059;-80
2023/06/26 02:44:47;;;;;;;11.18;8.07;;;;;;;;;;5073639;28;20048;-77
2023/06/26 02:47:15;;;;;;;11.85;8.13;;;;;;;;;;5074284;28;20048;-80
2023/06/26 02:49:42;;;;;;;9.85;7.70;;;;;;;;;;5071913;28;20048;-80
2023/06/26 02:52:09;;;;;;;11.25;8.38;;;;;;;;;;5071995;28;20052;-77
2023/06/26 02:54:36;;;;;;;11.10;7.88;;;;;;;;;;5072803;28;20402;-80
2023/06/26 02:57:02;;;;;;;10.40;8.05;;;;;;;;;;5072895;28;20066;-80
2023/06/26 02:59:29;;;;;;;11.05;8.02;;;;;;;;;;5071659;28;20052;-80
2023/06/26 03:01:55;;;;;;;12.23;8.13;;;;;;;;;;5071629;28;20531;-80
2023/06/26 03:04:22;;;;;;;11.15;7.85;;;;;;;;;;5072058;28;20037;-80
2023/06/26 03:06:50;;;;;;;12.25;8.05;;;;;;;;;;5080656;28;20055;-77
2023/06/26 03:09:17;;;;;;;11.65;7.53;;;;;;;;;;5081165;28;20087;-80
2023/06/26 03:11:44;;;;;;;10.82;7.70;;;;;;;;;;5076145;28;20036;-78
2023/06/26 03:14:10;;;;;;;11.30;8.25;;;;;;;;;;5073675;28;20483;-79
2023/06/26 03:16:37;;;;;;;10.68;7.25;;;;;;;;;;5074492;28;20051;-80
2023/06/26 03:19:04;;;;;;;10.23;7.00;;;;;;;;;;5072794;28;20044;-80
2023/06/26 03:21:30;;;;;;;9.55;7.22;;;;;;;;;;5072682;28;20044;-77
2023/06/26 03:23:59;;;;;;;10.38;7.43;;;;;;;;;;5072974;28;20102;-80
2023/06/26 03:26:27;;;;;;;10.70;7.65;;;;;;;;;;5072921;28;20135;-80
2023/06/26 03:28:54;;;;;;;10.50;7.63;;;;;;;;;;5071794;28;20055;-80
2023/06/26 03:31:21;;;;;;;10.43;7.63;;;;;;;;;;5071522;28;20048;-80
2023/06/26 03:33:48;;;;;;;12.25;8.35;;;;;;;;;;5072789;28;20045;-80
2023/06/26 03:36:14;;;;;;;11.80;8.73;;;;;;;;;;5070114;28;20056;-80
2023/06/26 03:38:41;;;;;;;13.60;9.50;;;;;;;;;;5068862;28;20147;-80
2023/06/26 03:41:09;;;;;;;14.90;10.45;;;;;;;;;;5070173;28;20084;-80
2023/06/26 03:43:36;;;;;;;14.65;9.88;;;;;;;;;;5071011;28;20058;-80
2023/06/26 03:46:03;;;;;;;14.63;9.70;;;;;;;;;;5070570;28;20108;-80
2023/06/26 03:48:29;;;;;;;12.90;9.65;;;;;;;;;;5070557;28;20052;-79
2023/06/26 03:50:56;;;;;;;13.00;9.32;;;;;;;;;;5070240;28;20044;-79
2023/06/26 03:53:23;;;;;;;12.45;9.25;;;;;;;;;;5069995;28;20132;-80
2023/06/26 03:55:50;;;;;;;12.07;9.27;;;;;;;;;;5070875;28;20041;-78
2023/06/26 03:58:18;;;;;;;13.38;9.43;;;;;;;;;;5070335;28;20219;-79
2023/06/26 04:00:44;;;;;;;12.35;8.93;;;;;;;;;;5069773;28;20057;-80
2023/06/26 04:03:11;;;;;;;11.05;8.20;;;;;;;;;;5070611;28;20044;-80
2023/06/26 04:05:37;;;;;;;12.48;8.20;;;;;;;;;;5070870;28;20049;-80
2023/06/26 04:08:04;;;;;;;10.70;7.43;;;;;;;;;;5070744;28;20044;-78
2023/06/26 04:10:31;;;;;;;12.38;7.88;;;;;;;;;;5070007;28;20045;-79
2023/06/26 04:12:58;;;;;;;12.95;8.52;;;;;;;;;;5071355;28;20056;-79
2023/06/26 04:15:26;;;;;;;11.73;7.82;;;;;;;;;;5070800;28;20040;-76
2023/06/26 04:17:52;;;;;;;10.90;7.40;;;;;;;;;;5070645;28;20068;-79
2023/06/26 04:20:19;;;;;;;10.75;8.13;;;;;;;;;;5070422;28;20041;-78
2023/06/26 04:22:45;;;;;;;10.40;7.78;;;;;;;;;;5071189;28;20143;-77
2023/06/26 04:25:12;;;;;;;10.73;7.95;;;;;;;;;;5071414;28;20043;-80
2023/06/26 04:27:39;;;;;;;10.93;7.32;;;;;;;;;;5071161;28;20071;-78
2023/06/26 04:30:07;;;;;;;9.70;7.53;;;;;;;;;;5069993;28;20062;-79
2023/06/26 04:32:35;;;;;;;9.65;6.82;;;;;;;;;;5072268;28;20056;-78
2023/06/26 04:35:02;;;;;;;11.52;7.82;;;;;;;;;;5074223;28;20051;-79
2023/06/26 04:37:29;;;;;;;11.20;7.20;;;;;;;;;;5075572;28;20040;-80
2023/06/26 04:39:55;;;;;;;11.68;7.68;;;;;;;;;;5071414;28;20131;-79
2023/06/26 04:42:22;;;;;;;10.77;7.75;;;;;;;;;;5071357;28;20079;-79
2023/06/26 04:44:49;;;;;;;11.75;7.78;;;;;;;;;;5071559;28;20384;-80
2023/06/26 04:47:16;;;;;;;11.05;8.07;;;;;;;;;;5084894;28;20100;-75
2023/06/26 04:49:45;;;;;;;11.98;7.90;;;;;;;;;;5093701;28;20032;-76
2023/06/26 04:52:13;;;;;;;11.32;8.25;;;;;;;;;;5091473;28;20083;-78
2023/06/26 04:54:39;;;;;;;12.50;8.00;;;;;;;;;;5085508;28;20040;-77
2023/06/26 04:57:06;;;;;;;12.35;8.23;;;;;;;;;;5073311;28;20108;-77
2023/06/26 04:59:33;;;;;;;11.88;8.38;;;;;;;;;;5069436;28;20088;-79
2023/06/26 05:01:59;;;;;;;11.68;8.38;;;;;;;;;;5073696;28;20134;-80
2023/06/26 05:04:26;;;;;;;13.27;9.50;;;;;;;;;;5072739;28;20056;-78
2023/06/26 05:06:54;;;;;;;12.98;8.88;;;;;;;;;;5071838;28;20060;-79
2023/06/26 05:09:20;;;;;;;10.85;8.10;;;;;;;;;;5071058;28;20131;-79
2023/06/26 05:11:47;;;;;;;13.82;9.98;;;;;;;;;;5071440;28;20419;-80
2023/06/26 05:14:14;;;;;;;12.73;9.30;;;;;;;;;;5071269;28;20106;-79
2023/06/26 05:16:40;;;;;;;11.10;7.95;;;;;;;;;;5072770;28;20040;-78
2023/06/26 05:19:07;;;;;;;12.85;9.05;;;;;;;;;;5074686;28;20040;-77
2023/06/26 05:21:35;;;;;;;12.18;8.32;;;;;;;;;;5075901;28;20123;-77
2023/06/26 05:24:04;;;;;;;12.07;8.55;;;;;;;;;;5075221;28;20053;-79
2023/06/26 05:26:31;;;;;;;12.45;8.35;;;;;;;;;;5075291;28;20040;-78
2023/06/26 05:28:58;;;;;;;13.68;8.68;;;;;;;;;;5074884;28;20047;-80
2023/06/26 05:31:25;;;;;;;11.52;7.65;;;;;;;;;;5075170;28;20050;-78
2023/06/26 05:33:56;;;;;;;11.65;8.07;;;;;;;;;;5075337;28;20135;-80
2023/06/26 05:36:24;;;;;;;13.35;9.07;;;;;;;;;;5074050;28;20055;-79
2023/06/26 05:38:51;;;;;;;12.75;9.15;;;;;;;;;;5073389;28;20059;-79
2023/06/26 05:41:20;;;;;;;12.80;8.45;;;;;;;;;;5074345;28;20058;-78
2023/06/26 05:43:46;;;;;;;12.73;9.57;;;;;;;;;;5074036;28;20135;-79
2023/06/26 05:46:13;;;;;;;12.48;9.00;;;;;;;;;;5074883;28;20044;-80
2023/06/26 05:48:40;;;;;;;11.18;8.25;;;;;;;;;;5074615;28;20104;-77
2023/06/26 05:51:07;;;;;;;11.38;7.43;;;;;;;;;;5074703;28;20037;-80
2023/06/26 05:53:34;;;;;;;10.85;7.93;;;;;;;;;;5073537;28;20375;-79
2023/06/26 05:56:02;;;;;;;12.00;8.38;;;;;;;;;;5073203;28;20050;-80
2023/06/26 05:58:31;;;;;;;11.35;8.30;;;;;;;;;;5074250;28;20046;-79
2023/06/26 06:00:57;;;;;;;10.23;7.37;;;;;;;;;;5074714;28;20036;-77
2023/06/26 06:03:24;;;;;;;9.68;7.03;;;;;;;;;;5074722;28;20721;-78
2023/06/26 06:05:51;;;;;;;9.43;6.82;;;;;;;;;;5075357;28;20048;-79
2023/06/26 06:08:18;;;;;;;10.07;7.00;;;;;;;;;;5073210;28;20048;-80
2023/06/26 06:10:44;;;;;;;9.70;6.82;;;;;;;;;;5073477;28;20140;-80
2023/06/26 06:13:11;;;;;;;10.73;7.47;;;;;;;;;;5082367;28;20042;-77
2023/06/26 06:15:39;;;;;;;11.05;8.02;;;;;;;;;;5092504;28;20044;-76
2023/06/26 06:18:05;;;;;;;11.52;8.20;;;;;;;;;;5090807;28;20117;-77
2023/06/26 06:20:32;;;;;;;10.68;7.40;;;;;;;;;;5086775;28;20163;-79
2023/06/26 06:22:59;;;;;;;10.07;7.20;;;;;;;;;;5075127;28;20496;-78
2023/06/26 06:25:25;;;;;;;9.27;6.32;;;;;;;;;;5074991;28;20047;-79
2023/06/26 06:27:52;;;;;;;9.65;7.18;;;;;;;;;;5075228;28;20048;-79
2023/06/26 06:30:19;;;;;;;9.98;7.10;;;;;;;;;;5073387;28;20075;-77
2023/06/26 06:32:50;;;;;;;9.23;6.88;;;;;;;;;;5073091;28;20068;-77
2023/06/26 06:35:17;;;;;;;9.88;7.10;;;;;;;;;;5073117;28;20119;-79
2023/06/26 06:37:44;;;;;;;9.38;6.68;;;;;;;;;;5073192;28;20047;-78
2023/06/26 06:40:11;;;;;;;8.48;6.38;;;;;;;;;;5072407;28;20037;-80
2023/06/26 06:42:38;;;;;;;9.27;6.22;;;;;;;;;;5072633;28;20053;-79
2023/06/26 06:45:05;;;;;;;9.95;6.57;;;;;;;;;;5073243;28;20052;-79
2023/06/26 06:47:32;;;;;;;8.63;6.53;;;;;;;;;;5073712;28;20112;-79
2023/06/26 06:50:07;;;;;;;10.05;6.50;;;;;;;;;;5072807;28;20047;-80
2023/06/26 06:52:34;;;;;;;9.52;6.70;;;;;;;;;;5071656;28;20491;-78
2023/06/26 06:55:05;;;;;;;8.45;6.57;;;;;;;;;;5073302;28;20108;-79
2023/06/26 06:57:35;;;;;;;9.20;7.32;;;;;;;;;;5077735;28;20480;-79
2023/06/26 07:00:02;;;;;;;8.80;6.35;;;;;;;;;;5063210;28;20060;-79
2023/06/26 07:02:29;;;;;;;10.48;6.75;;;;;;;;;;5063352;28;20045;-78
2023/06/26 07:04:55;;;;;;;9.35;7.30;;;;;;;;;;5085241;28;20113;-78
2023/06/26 07:07:23;;;;;;;9.05;6.20;;;;;;;;;;5081209;28;20050;-79
2023/06/26 07:09:50;;;;;;;8.60;5.93;;;;;;;;;;5073964;28;20075;-78
2023/06/26 07:12:16;;;;;;;7.90;5.97;;;;;;;;;;5058129;28;20045;-79
2023/06/26 07:14:43;;;;;;;8.98;6.13;;;;;;;;;;5053670;28;20140;-77
2023/06/26 07:17:10;;;;;;;7.70;5.95;;;;;;;;;;5066625;28;20045;-80
2023/06/26 07:19:36;;;;;;;8.85;6.45;;;;;;;;;;5075055;28;20044;-79
2023/06/26 07:22:03;;;;;;;9.73;6.40;;;;;;;;;;5069250;28;20068;-80
2023/06/26 07:24:32;;;;;;;8.70;6.90;;;;;;;;;;5072176;28;20049;-80
2023/06/26 07:27:00;;;;;;;8.18;6.57;;;;;;;;;;5058434;28;20045;-79
2023/06/26 07:29:27;;;;;;;8.82;6.68;;;;;;;;;;5058869;28;20049;-80
2023/06/26 07:31:53;;;;;;;8.82;7.05;;;;;;;;;;5061715;28;20076;-79
2023/06/26 07:34:20;;;;;;;9.30;6.90;;;;;;;;;;5072359;28;20514;-80
2023/06/26 07:36:47;;;;;;;9.05;6.63;;;;;;;;;;5053260;28;20140;-79
2023/06/26 07:39:13;;;;;;;10.35;6.40;;;;;;;;;;5060875;28;20076;-79
2023/06/26 07:41:42;;;;;;;8.15;6.72;;;;;;;;;;5061412;28;20100;-80
2023/06/26 07:44:08;;;;;;;9.07;6.97;;;;;;;;;;5057148;28;20127;-79
2023/06/26 07:46:35;;;;;;;10.82;7.40;;;;;;;;;;5069791;28;20079;-79
2023/06/26 07:49:01;;;;;;;9.00;7.13;;;;;;;;;;5064898;28;20636;-80
2023/06/26 07:51:29;;;;;;;8.80;7.18;;;;;;;;;;5072919;28;20049;-79
2023/06/26 07:53:56;;;;;;;8.18;6.68;;;;;;;;;;5069141;28;20080;-83
2023/06/26 07:56:22;;;;;;;8.25;6.90;;;;;;;;;;5067621;28;20103;-84
2023/06/26 07:58:50;;;;;;;8.10;6.70;;;;;;;;;;5073261;28;20080;-79
2023/06/26 08:01:17;;;;;;;8.80;6.88;;;;;;;;;;5069628;28;20072;-79
2023/06/26 08:03:44;;;;;;;9.20;7.22;;;;;;;;;;5070367;28;20110;-78
2023/06/26 08:06:10;;;;;;;8.30;6.53;;;;;;;;;;5077685;28;20078;-77
2023/06/26 08:08:37;;;;;;;8.55;7.25;;;;;;;;;;5076223;28;20104;-78
2023/06/26 08:11:04;;;;;;;8.77;6.95;;;;;;;;;;5068912;28;20099;-80
2023/06/26 08:13:30;;;;;;;10.25;7.97;;;;;;;;;;5067899;28;20076;-82
2023/06/26 08:15:58;;;;;;;10.45;7.30;;;;;;;;;;5072188;28;20059;-80
2023/06/26 08:18:25;;;;;;;10.00;7.30;;;;;;;;;;5072982;28;20076;-78
2023/06/26 08:20:51;;;;;;;9.88;7.63;;;;;;;;;;5063915;28;20087;-77
2023/06/26 08:23:18;;;;;;;9.10;6.97;;;;;;;;;;5064602;28;20051;-77
2023/06/26 08:25:46;;;;;;;9.63;7.93;;;;;;;;;;5067792;28;20079;-77
2023/06/26 08:28:13;;;;;;;8.15;6.50;;;;;;;;;;5068107;28;20124;-78
2023/06/26 08:30:40;;;;;;;9.40;7.20;;;;;;;;;;5068791;28;20390;-78
2023/06/26 08:33:12;;;;;;;9.70;7.05;;;;;;;;;;5069617;28;20052;-77
2023/06/26 08:35:38;;;;;;;13.50;7.63;;;;;;;;;;5067851;28;20156;-77
2023/06/26 08:38:05;;;;;;;9.95;8.07;;;;;;;;;;5073331;28;20084;-77
2023/06/26 08:40:33;;;;;;;8.32;6.88;;;;;;;;;;5080354;28;20055;-78
2023/06/26 08:42:59;;;;;;;8.95;7.07;;;;;;;;;;5086520;28;20080;-78
2023/06/26 08:45:28;;;;;;;8.85;6.88;;;;;;;;;;5077883;28;20041;-77
2023/06/26 08:47:56;;;;;;;10.02;7.22;;;;;;;;;;5082957;28;20108;-79
2023/06/26 08:50:25;;;;;;;9.02;6.88;;;;;;;;;;5086589;28;20079;-78
2023/06/26 08:52:57;;;;;;;8.87;7.37;;;;;;;;;;5090744;28;20044;-78
2023/06/26 08:55:27;;;;;;;10.32;7.63;;;;;;;;;;5088272;28;20044;-79
2023/06/26 08:57:54;;;;;;;8.30;6.72;;;;;;;;;;5091792;28;20052;-77
2023/06/26 09:00:21;;;;;;;10.75;7.78;;;;;;;;;;5076906;28;20068;-77
2023/06/26 09:02:48;;;;;;;10.70;8.95;;;;;;;;;;5068093;28;20076;-77
2023/06/26 09:05:14;;;;;;;10.38;7.40;;;;;;;;;;5069462;28;20041;-78
2023/06/26 09:07:42;;;;;;;9.02;7.05;;;;;;;;;;5063991;28;20628;-77
2023/06/26 09:10:10;;;;;;;8.30;6.35;;;;;;;;;;5071779;28;20499;-77
2023/06/26 09:12:37;;;;;;;9.18;7.00;;;;;;;;;;5076890;28;20123;-77
2023/06/26 09:15:05;;;;;;;8.27;7.30;;;;;;;;;;5072615;28;20328;-77
2023/06/26 09:17:34;;;;;;;9.40;6.90;;;;;;;;;;5073642;28;20151;-78
2023/06/26 09:20:01;;;;;;;10.40;6.90;;;;;;;;;;5071945;28;20098;-78
2023/06/26 09:22:28;;;;;;;7.63;6.63;;;;;;;;;;5078718;28;20036;-78
2023/06/26 09:24:56;;;;;;;8.32;6.05;;;;;;;;;;5066662;28;20045;-78
2023/06/26 09:27:23;;;;;;;8.20;6.55;;;;;;;;;;5073045;28;20131;-77
2023/06/26 09:29:50;;;;;;;8.07;6.55;;;;;;;;;;5067239;28;20450;-77
2023/06/26 09:32:17;;;;;;;8.05;6.80;;;;;;;;;;5080312;28;20075;-77
2023/06/26 09:34:45;;;;;;;7.22;6.18;;;;;;;;;;5063236;28;20140;-77
2023/06/26 09:37:13;;;;;;;7.68;6.30;;;;;;;;;;5063461;28;20049;-78
2023/06/26 09:39:40;;;;;;;8.25;6.25;;;;;;;;;;5064058;28;20101;-77
2023/06/26 09:42:09;;;;;;;7.25;5.63;;;;;;;;;;5074575;28;20131;-77
2023/06/26 09:44:36;;;;;;;7.05;5.80;;;;;;;;;;5076194;28;20040;-77
2023/06/26 09:47:03;;;;;;;8.73;6.25;;;;;;;;;;5072461;28;20571;-77
2023/06/26 09:49:29;;;;;;;7.50;6.35;;;;;;;;;;5064726;28;20085;-77
2023/06/26 09:51:56;;;;;;;7.75;5.90;;;;;;;;;;5072349;28;20083;-79
2023/06/26 09:54:25;;;;;;;7.53;6.13;;;;;;;;;;5079265;28;20095;-78
2023/06/26 09:56:51;;;;;;;7.10;5.70;;;;;;;;;;5078677;28;20036;-78
2023/06/26 09:59:19;;;;;;;8.60;6.15;;;;;;;;;;5080286;28;20071;-78
2023/06/26 10:01:47;;;;;;;7.30;6.00;;;;;;;;;;5072969;28;20139;-77
2023/06/26 10:04:14;;;;;;;8.73;5.43;;;;;;;;;;5064544;28;20082;-78
2023/06/26 10:06:46;;;;;;;6.30;4.95;;;;;;;;;;5078498;28;20045;-76
2023/06/26 10:09:15;;;;;;;6.07;4.97;;;;;;;;;;5082023;28;20667;-77
2023/06/26 10:11:49;;;;;;;6.85;5.20;;;;;;;;;;5063753;28;20094;-77
2023/06/26 10:14:19;;;;;;;7.43;4.97;;;;;;;;;;5057083;28;20052;-77
2023/06/26 10:16:47;;;;;;;;;;;;;;;;;;5070335;28;20677;-77
2023/06/26 10:19:15;;;;;;;6.72;5.43;;;;;;;;;;5057384;28;19921;-77
2023/06/26 10:21:42;;;;;;;6.20;5.38;;;;;;;;;;5067717;28;20048;-77
2023/06/26 10:24:12;;;;;;;8.35;5.38;;;;;;;;;;5066966;28;20040;-76
2023/06/26 10:26:44;;;;;;;7.05;5.68;;;;;;;;;;5062974;28;20068;-76
2023/06/26 10:29:12;;;;;;;7.50;5.90;;;;;;;;;;5063214;28;20109;-77
2023/06/26 10:31:45;;;;;;;8.73;5.15;;;;;;;;;;5061590;28;20045;-77
2023/06/26 10:34:12;;;;;;;7.57;5.63;;;;;;;;;;5068140;28;20422;-77
2023/06/26 10:36:39;;;;;;;6.38;5.05;;;;;;;;;;5070156;28;20048;-77
2023/06/26 10:39:07;;;;;;;6.65;5.45;;;;;;;;;;5068555;28;20136;-77
2023/06/26 10:41:38;;;;;;;7.38;5.55;;;;;;;;;;5065826;28;20045;-76
2023/06/26 10:44:10;;;;;;;6.00;5.18;;;;;;;;;;5071825;28;20125;-77
2023/06/26 10:46:53;;;;;;;7.00;5.53;;;;;;;;;;5064209;28;20055;-76
2023/06/26 10:49:21;;;;;;;6.43;5.28;;;;;;;;;;5051857;28;20048;-76
2023/06/26 10:51:49;;;;;;;7.70;5.15;;;;;;;;;;5060680;28;20473;-76
2023/06/26 10:54:16;;;;;;;6.28;4.65;;;;;;;;;;5071456;28;20558;-77
2023/06/26 10:56:44;;;;;;;7.30;4.80;;;;;;;;;;5071858;28;20095;-76
2023/06/26 10:59:16;;;;;;;6.68;4.97;;;;;;;;;;5067843;28;20131;-76
2023/06/26 11:01:44;;;;;;;6.78;4.97;;;;;;;;;;5060231;28;20041;-77
2023/06/26 11:04:14;;;;;;;6.70;5.32;;;;;;;;;;5062704;28;20153;-76
2023/06/26 11:06:40;;;;;;;7.63;5.47;;;;;;;;;;5083013;28;20044;-76
2023/06/26 11:09:10;;;;;;;6.55;5.40;;;;;;;;;;5091144;28;20635;-76
2023/06/26 11:12:04;;;;;;;6.88;5.22;;;;;;;;;;5063760;28;20099;-76
2023/06/26 11:14:31;;;;;;;6.78;5.15;;;;;;;;;;5069539;28;20044;-78
2023/06/26 11:16:59;;;;;;;6.70;5.57;;;;;;;;;;5063855;28;20044;-77
2023/06/26 11:19:29;;;;;;;6.47;5.43;;;;;;;;;;5052812;28;20488;-78
2023/06/26 11:22:05;;;;;;;7.03;5.43;;;;;;;;;;5057836;28;20507;-77
2023/06/26 11:24:32;;;;;;;7.43;5.43;;;;;;;;;;5066705;28;20043;-77
2023/06/26 11:27:03;;;;;;;6.65;5.50;;;;;;;;;;5063082;28;20499;-76
2023/06/26 11:29:31;;;;;;;6.68;5.45;;;;;;;;;;5062742;28;20049;-78
2023/06/26 11:32:05;;;;;;;6.80;5.72;;;;;;;;;;5071280;28;20132;-77
2023/06/26 11:34:33;;;;;;;7.50;5.63;;;;;;;;;;5070343;28;20061;-77
2023/06/26 11:37:03;;;;;;;7.40;5.72;;;;;;;;;;5061521;28;20542;-77
2023/06/26 11:39:30;;;;;;;8.48;6.28;;;;;;;;;;5054399;28;20064;-77
2023/06/26 11:41:57;;;;;;;6.65;5.95;;;;;;;;;;5061668;28;20052;-77
2023/06/26 11:44:24;;;;;;;9.10;6.30;;;;;;;;;;5073269;28;20044;-79
2023/06/26 11:46:54;;;;;;;7.72;5.90;;;;;;;;;;5071838;28;20132;-77
2023/06/26 11:49:23;;;;;;;9.38;6.47;;;;;;;;;;5074089;28;20048;-77
2023/06/26 11:51:51;;;;;;;7.90;6.60;;;;;;;;;;5072103;28;20113;-77
2023/06/26 11:54:24;;;;;;;7.97;6.10;;;;;;;;;;5065963;28;20124;-78
2023/06/26 11:56:57;;;;;;;9.70;7.85;;;;;;;;;;5081577;28;20072;-79
2023/06/26 11:59:25;;;;;;;7.38;6.22;;;;;;;;;;5073455;28;20127;-78
2023/06/26 12:01:52;;;;;;;6.53;5.65;;;;;;;;;;5069339;28;20140;-77
2023/06/26 12:04:21;;;;;;;6.63;5.93;;;;;;;;;;5064875;28;20045;-77
2023/06/26 12:06:49;;;;;;;6.82;5.80;;;;;;;;;;5066963;28;20131;-77
2023/06/26 12:09:19;;;;;;;7.28;6.45;;;;;;;;;;5057758;28;20073;-78
2023/06/26 12:11:48;;;;;;;8.15;6.45;;;;;;;;;;5070720;28;20036;-78
2023/06/26 12:14:16;;;;;;;7.07;6.00;;;;;;;;;;5071993;28;20049;-78
2023/06/26 12:16:43;;;;;;;8.50;7.07;;;;;;;;;;5066493;28;20207;-78
2023/06/26 12:19:12;;;;;;;8.10;6.25;;;;;;;;;;5074157;28;20499;-78
2023/06/26 12:21:47;;;;;;;7.55;5.90;;;;;;;;;;5071816;28;20041;-78
2023/06/26 12:24:15;;;;;;;7.43;6.68;;;;;;;;;;5064365;28;20049;-78
2023/06/26 12:26:45;;;;;;;6.95;5.88;;;;;;;;;;5073833;28;20479;-78
2023/06/26 12:29:12;;;;;;;;;;;;;;;;;;5074833;28;20044;-79
2023/06/26 12:31:41;;;;;;;7.88;5.90;;;;;;;;;;5079303;28;20070;-78
2023/06/26 12:34:11;;;;;;;7.32;5.82;;;;;;;;;;5071238;28;20060;-78
2023/06/26 12:36:41;;;;;;;7.80;7.00;;;;;;;;;;5064535;28;20049;-78
2023/06/26 12:39:10;;;;;;;7.45;6.15;;;;;;;;;;5064392;28;20079;-78
2023/06/26 12:41:47;;;;;;;8.25;5.85;;;;;;;;;;5064211;28;20048;-78
2023/06/26 12:44:25;;;;;;;7.55;6.10;;;;;;;;;;5071675;28;20123;-78
2023/06/26 12:46:55;;;;;;;6.93;6.22;;;;;;;;;;5077426;28;20044;-78
2023/06/26 12:49:30;;;;;;;7.78;6.38;;;;;;;;;;5084185;28;20083;-77
2023/06/26 12:51:57;;;;;;;7.38;6.55;;;;;;;;;;5082870;28;20132;-77
2023/06/26 12:54:24;;;;;;;8.43;6.18;;;;;;;;;;5081685;28;20044;-77
2023/06/26 12:56:51;;;;;;;7.93;6.60;;;;;;;;;;5082087;28;20071;-78
2023/06/26 12:59:18;;;;;;;7.90;6.60;;;;;;;;;;5082465;28;20117;-77
2023/06/26 13:01:45;;;;;;;9.27;6.95;;;;;;;;;;5082140;28;20096;-77
2023/06/26 13:04:11;;;;;;;7.95;6.32;;;;;;;;;;5073491;28;20114;-77
2023/06/26 13:06:38;;;;;;;8.32;6.68;;;;;;;;;;5069504;28;20052;-77
2023/06/26 13:09:05;;;;;;;8.07;6.40;;;;;;;;;;5068549;28;20118;-77
2023/06/26 13:11:31;;;;;;;8.05;7.07;;;;;;;;;;5079603;28;20046;-77
2023/06/26 13:14:00;;;;;;;8.60;6.57;;;;;;;;;;5081841;28;20071;-77
2023/06/26 13:16:27;;;;;;;7.30;6.53;;;;;;;;;;5081447;28;20090;-77
2023/06/26 13:18:53;;;;;;;7.53;6.47;;;;;;;;;;5080113;28;20045;-77
2023/06/26 13:21:20;;;;;;;10.40;7.47;;;;;;;;;;5081190;28;20109;-77
2023/06/26 13:23:47;;;;;;;9.75;7.22;;;;;;;;;;5081507;28;20093;-77
2023/06/26 13:26:14;;;;;;;10.10;7.53;;;;;;;;;;5080732;28;20044;-77
2023/06/26 13:28:41;;;;;;;8.80;7.38;;;;;;;;;;5081224;28;20130;-77
2023/06/26 13:31:10;;;;;;;7.78;6.97;;;;;;;;;;5071787;28;20052;-78
2023/06/26 13:33:37;;;;;;;7.68;6.88;;;;;;;;;;5071422;28;20076;-79
2023/06/26 13:36:04;;;;;;;8.25;7.35;;;;;;;;;;5073216;28;20045;-78
2023/06/26 13:38:33;;;;;;;8.38;7.50;;;;;;;;;;5070917;28;20131;-78
2023/06/26 13:41:01;;;;;;;12.77;7.50;;;;;;;;;;5075645;28;20035;-79
2023/06/26 13:43:29;;;;;;;8.48;7.55;;;;;;;;;;5069690;28;20503;-77
2023/06/26 13:45:56;;;;;;;12.13;9.85;;;;;;;;;;5066150;28;20051;-77
2023/06/26 13:48:25;;;;;;;9.63;7.80;;;;;;;;;;5064234;28;20108;-77
2023/06/26 13:50:53;;;;;;;8.93;7.47;;;;;;;;;;5067907;28;20144;-77
2023/06/26 13:53:20;;;;;;;8.45;7.65;;;;;;;;;;5054979;28;20129;-77
2023/06/26 13:55:46;;;;;;;8.13;7.32;;;;;;;;;;5069314;28;20449;-77
2023/06/26 13:58:13;;;;;;;9.77;7.45;;;;;;;;;;5075591;28;20044;-77
2023/06/26 14:00:40;;;;;;;8.18;6.70;;;;;;;;;;5066673;28;20603;-80
2023/06/26 14:03:09;;;;;;;10.18;8.43;;;;;;;;;;5070754;28;20095;-81
2023/06/26 14:05:38;;;;;;;9.02;6.93;;;;;;;;;;5073148;28;20810;-75
2023/06/26 14:08:06;;;;;;;8.82;7.93;;;;;;;;;;5069359;28;20052;-79
2023/06/26 14:10:34;;;;;;;8.75;7.85;;;;;;;;;;5075964;28;20070;-80
2023/06/26 14:13:01;;;;;;;8.63;7.70;;;;;;;;;;5059609;28;20041;-76
2023/06/26 14:15:27;;;;;;;7.43;6.55;;;;;;;;;;5062268;28;20464;-77
2023/06/26 14:17:55;;;;;;;7.95;6.55;;;;;;;;;;5069334;28;20072;-78
2023/06/26 14:20:22;;;;;;;9.85;6.93;;;;;;;;;;5091448;28;20491;-77
2023/06/26 14:22:50;;;;;;;11.32;7.70;;;;;;;;;;5085303;28;20052;-80
2023/06/26 14:25:18;;;;;;;8.05;7.05;;;;;;;;;;5075522;28;20102;-79
2023/06/26 14:27:44;;;;;;;8.70;7.75;;;;;;;;;;5082054;28;20097;-77
2023/06/26 14:30:12;;;;;;;8.82;7.93;;;;;;;;;;5077448;28;20051;-77
2023/06/26 14:32:39;;;;;;;8.88;7.90;;;;;;;;;;5066435;28;20049;-79
2023/06/26 14:35:06;;;;;;;11.40;8.75;;;;;;;;;;5067392;28;20079;-78
2023/06/26 14:37:33;;;;;;;9.82;8.75;;;;;;;;;;5062553;28;20059;-80
2023/06/26 14:40:01;;;;;;;9.85;8.85;;;;;;;;;;5056620;28;20416;-79
2023/06/26 14:42:28;;;;;;;11.13;9.18;;;;;;;;;;5056905;28;20120;-79